Hesperia, Michigan
Current Conditions -  °F | °C
As of 6:14 PM on Tuesday 25 Nov 2014 (Local Time) from KFFX Reporting Station
Overcast Overcast  
Wind Chill: 19°   Ceiling: 2300
Heat Index: 28°   Visibility: 10mi
Dew Point: 22°   Wind: 8mph
Humidity: 80%   Direction: 280°W
Pressure: 30.11"   Gusts: NA
Location:  43.57°N, 86.04°W
Report Text: KFFX 252314Z AUTO 28007KT 10SM OVC023 M02/M05 A3011 RMK AO2 T10251055
Loading
Personal Weather Stations






























Interactive Weather Map New forecast layout! Learn more

10-Day Weather Forecast

Advertisements
Track Severe Weather on mobile